createdAt,value
2022-12-13T00:03:50.173Z,-2.60
2022-12-13T00:08:55.574Z,-2.45
2022-12-13T00:14:03.439Z,-2.52
2022-12-13T00:19:10.975Z,-2.30
2022-12-13T00:24:16.450Z,-2.59
2022-12-13T00:29:23.994Z,-2.43
2022-12-13T00:34:29.455Z,-2.58
2022-12-13T00:39:34.397Z,-2.51
2022-12-13T00:44:42.149Z,-2.35
2022-12-13T00:49:47.856Z,-2.69
2022-12-13T00:54:52.709Z,-2.61
2022-12-13T01:00:00.435Z,-2.74
2022-12-13T01:05:05.367Z,-2.76
2022-12-13T01:10:11.715Z,-2.63
2022-12-13T01:15:19.415Z,-2.49
2022-12-13T01:20:24.310Z,-2.52
2022-12-13T01:25:29.218Z,-2.48
2022-12-13T01:30:36.792Z,-2.52
2022-12-13T01:35:41.750Z,-2.64
2022-12-13T01:40:48.463Z,-2.30
2022-12-13T01:45:55.987Z,-2.65
2022-12-13T01:51:05.676Z,-2.60
2022-12-13T01:56:14.599Z,-2.15
2022-12-13T02:01:24.495Z,-2.51
2022-12-13T02:06:35.639Z,-2.61
2022-12-13T02:11:46.493Z,-2.44
2022-12-13T02:17:04.282Z,-2.53
2022-12-13T02:22:23.609Z,-2.62
2022-12-13T02:27:52.272Z,-2.38
2022-12-13T02:33:26.943Z,-2.20
2022-12-13T02:38:39.587Z,-2.60
2022-12-13T02:43:50.752Z,-2.59
2022-12-13T02:49:00.045Z,-2.32
2022-12-13T02:54:05.092Z,-2.09
2022-12-13T02:59:15.819Z,-2.43
2022-12-13T03:04:39.987Z,-2.67
2022-12-13T03:09:58.471Z,-2.34
2022-12-13T03:15:10.231Z,-2.41
2022-12-13T03:20:22.756Z,-2.31
2022-12-13T03:25:33.515Z,-2.45
2022-12-13T03:30:38.456Z,-2.37
2022-12-13T03:35:48.559Z,-2.33
2022-12-13T03:40:56.511Z,-2.49
2022-12-13T03:46:01.621Z,-2.57
2022-12-13T03:51:09.310Z,-2.37
2022-12-13T03:56:14.407Z,-2.46
2022-12-13T04:01:20.561Z,-2.42
2022-12-13T04:06:32.793Z,-2.37
2022-12-13T04:11:53.152Z,-2.59
2022-12-13T04:16:59.517Z,-2.60
2022-12-13T04:22:07.069Z,-2.60
2022-12-13T04:27:12.107Z,-2.31
2022-12-13T04:32:26.441Z,-2.30
2022-12-13T04:37:35.497Z,-2.17
2022-12-13T04:42:40.627Z,-2.19
2022-12-13T04:47:45.793Z,-2.34
2022-12-13T04:52:53.459Z,-2.14
2022-12-13T04:58:00.834Z,-2.12
2022-12-13T05:03:05.696Z,-2.48
2022-12-13T05:08:13.500Z,-2.31
2022-12-13T05:13:18.507Z,-2.17
2022-12-13T05:18:23.682Z,-2.50
2022-12-13T05:23:31.311Z,-2.26
2022-12-13T05:28:36.545Z,-2.21
2022-12-13T05:33:41.585Z,-2.13
2022-12-13T05:38:49.049Z,-2.17
2022-12-13T05:43:54.291Z,-2.12
2022-12-13T05:48:59.298Z,-2.36
2022-12-13T05:54:07.978Z,-1.88
2022-12-13T05:59:12.885Z,-2.07
2022-12-13T06:04:22.573Z,-2.39
2022-12-13T06:09:30.863Z,-2.43
2022-12-13T06:15:03.161Z,-2.15
2022-12-13T06:20:31.403Z,-1.81
2022-12-13T06:25:47.428Z,-2.23
2022-12-13T06:30:55.317Z,-1.99
2022-12-13T06:36:01.329Z,-2.23
2022-12-13T06:41:15.454Z,-1.97
2022-12-13T06:46:20.538Z,-1.89
2022-12-13T06:51:32.512Z,-1.99
2022-12-13T06:56:40.986Z,-2.89
2022-12-13T07:01:50.740Z,-2.76
2022-12-13T07:06:56.047Z,-2.48
2022-12-13T07:12:10.283Z,-2.74
2022-12-13T07:17:32.582Z,-2.74
2022-12-13T07:22:47.238Z,-2.97
2022-12-13T07:28:03.203Z,-2.91
2022-12-13T07:33:09.352Z,-2.74
2022-12-13T07:38:15.201Z,-2.66
2022-12-13T07:43:24.189Z,-2.68
2022-12-13T07:48:29.613Z,-2.65
2022-12-13T07:53:34.765Z,-2.77
2022-12-13T07:58:42.480Z,-2.49
2022-12-13T08:03:47.550Z,-2.21
2022-12-13T08:08:54.091Z,-2.06
2022-12-13T08:14:01.705Z,-2.10
2022-12-13T08:19:07.463Z,-2.23
2022-12-13T08:24:15.810Z,-2.26
2022-12-13T08:29:33.175Z,-2.07
2022-12-13T08:34:41.391Z,-1.98
2022-12-13T08:39:47.001Z,-2.15
2022-12-13T08:44:57.070Z,-2.33
2022-12-13T08:50:04.439Z,-3.12
2022-12-13T08:55:10.361Z,-3.27
2022-12-13T09:00:20.116Z,-3.22
2022-12-13T09:05:33.920Z,-3.06
2022-12-13T09:10:40.251Z,-3.17
2022-12-13T09:15:55.064Z,-3.08
2022-12-13T09:21:12.171Z,-3.15
2022-12-13T09:26:19.033Z,-2.78
2022-12-13T09:31:41.252Z,-2.76
2022-12-13T09:36:46.638Z,-2.11
2022-12-13T09:42:01.258Z,-2.71
2022-12-13T09:47:23.169Z,-2.36
2022-12-13T09:52:33.479Z,-2.21
2022-12-13T09:57:38.808Z,-2.63
2022-12-13T10:02:56.166Z,-2.50
2022-12-13T10:08:03.639Z,-2.46
2022-12-13T10:13:20.511Z,-2.64
2022-12-13T10:18:37.355Z,-2.24
2022-12-13T10:24:22.773Z,-2.02
2022-12-13T10:29:12.716Z,-2.15
2022-12-13T10:34:27.484Z,-2.01
2022-12-13T10:39:43.756Z,-2.10
2022-12-13T10:45:10.926Z,-2.06
2022-12-13T10:50:29.967Z,-1.94
2022-12-13T10:55:38.605Z,-1.94
2022-12-13T11:00:46.528Z,-1.67
2022-12-13T11:06:06.238Z,-2.07
2022-12-13T11:11:13.164Z,-1.87
2022-12-13T11:16:26.574Z,-2.00
2022-12-13T11:21:41.360Z,-1.02
2022-12-13T11:26:53.967Z,-1.35
2022-12-13T11:32:08.438Z,-1.39
2022-12-13T11:37:31.636Z,-0.69
2022-12-13T11:42:43.975Z,-0.57
2022-12-13T11:47:58.822Z,-0.81
2022-12-13T11:53:25.306Z,-0.10
2022-12-13T11:59:16.243Z,-0.21
2022-12-13T12:04:30.957Z,-0.26
2022-12-13T12:09:44.668Z,0.11
2022-12-13T12:14:57.730Z,0.19
2022-12-13T12:20:24.252Z,0.40
2022-12-13T12:25:42.359Z,0.35
2022-12-13T12:30:57.716Z,0.24
2022-12-13T12:36:19.183Z,0.21
2022-12-13T12:41:40.604Z,0.26
2022-12-13T12:47:31.628Z,0.58
2022-12-13T12:52:38.572Z,1.00
2022-12-13T12:57:57.880Z,0.95
2022-12-13T13:03:22.643Z,0.71
2022-12-13T13:08:35.281Z,0.72
2022-12-13T13:13:51.953Z,0.69
2022-12-13T13:18:58.623Z,0.47
2022-12-13T13:24:19.250Z,0.06
2022-12-13T13:29:43.371Z,-0.48
2022-12-13T13:34:52.123Z,-0.66
2022-12-13T13:40:03.786Z,-0.78
2022-12-13T13:45:28.735Z,-0.97
2022-12-13T13:51:08.716Z,-1.00
2022-12-13T13:56:43.665Z,-1.07
2022-12-13T14:02:36.583Z,-1.30
2022-12-13T14:08:22.143Z,-1.49
2022-12-13T14:14:03.470Z,-1.48
2022-12-13T14:19:38.185Z,-1.58
2022-12-13T14:24:55.409Z,-1.65
2022-12-13T14:30:01.901Z,-1.68
2022-12-13T14:35:48.348Z,-1.86
2022-12-13T14:41:06.647Z,-2.05
2022-12-13T14:46:17.144Z,-1.95
2022-12-13T14:51:33.961Z,-2.10
2022-12-13T14:56:56.999Z,-2.25
2022-12-13T15:02:03.613Z,-2.37
2022-12-13T15:07:28.344Z,-2.55
2022-12-13T15:12:36.646Z,-2.75
2022-12-13T15:17:42.939Z,-2.73
2022-12-13T15:23:03.254Z,-3.35
2022-12-13T15:28:21.588Z,-3.03
2022-12-13T15:33:34.469Z,-3.16
2022-12-13T15:38:52.332Z,-3.29
2022-12-13T15:44:02.729Z,-3.78
2022-12-13T15:49:25.741Z,-4.11
2022-12-13T15:54:33.461Z,-4.16
2022-12-13T15:59:39.523Z,-4.16
2022-12-13T16:04:44.673Z,-4.19
2022-12-13T16:09:56.465Z,-4.24
2022-12-13T16:15:20.395Z,-4.23
2022-12-13T16:20:36.286Z,-4.67
2022-12-13T16:25:47.132Z,-4.88
2022-12-13T16:31:12.520Z,-4.79
2022-12-13T16:36:17.902Z,-5.07
2022-12-13T16:41:25.583Z,-5.17
2022-12-13T16:47:15.220Z,-5.33
2022-12-13T16:51:56.299Z,-5.47
2022-12-13T16:57:04.043Z,-5.81
2022-12-13T17:02:09.078Z,-5.72
2022-12-13T17:07:14.023Z,-5.77
2022-12-13T17:12:21.529Z,-6.19
2022-12-13T17:17:27.734Z,-6.40
2022-12-13T17:22:32.721Z,-6.37
2022-12-13T17:27:40.596Z,-6.31
2022-12-13T17:32:46.054Z,-6.71
2022-12-13T17:37:50.967Z,-6.65
2022-12-13T17:42:58.425Z,-6.79
2022-12-13T17:48:03.425Z,-6.60
2022-12-13T17:53:08.702Z,-6.68
2022-12-13T17:58:16.305Z,-6.51
2022-12-13T18:03:21.275Z,-6.77
2022-12-13T18:08:26.217Z,-6.87
2022-12-13T18:13:34.035Z,-6.95
2022-12-13T18:18:39.032Z,-7.05
2022-12-13T18:23:44.750Z,-7.33
2022-12-13T18:29:03.148Z,-7.42
2022-12-13T18:34:08.489Z,-7.42
2022-12-13T18:39:14.756Z,-7.36
2022-12-13T18:44:22.852Z,-7.23
2022-12-13T18:49:28.374Z,-7.59
2022-12-13T18:54:36.772Z,-7.55
2022-12-13T18:59:54.168Z,-7.44
2022-12-13T19:05:00.851Z,-7.53
2022-12-13T19:10:07.678Z,-7.43
2022-12-13T19:15:19.079Z,-7.49
2022-12-13T19:20:25.578Z,-7.48
2022-12-13T19:25:33.218Z,-7.59
2022-12-13T19:30:49.314Z,-7.34
2022-12-13T19:35:55.078Z,-7.28
2022-12-13T19:41:01.407Z,-7.38
2022-12-13T19:46:15.270Z,-7.43
2022-12-13T19:51:23.673Z,-7.27
2022-12-13T19:56:30.070Z,-7.23
2022-12-13T20:01:39.439Z,-7.22
2022-12-13T20:06:51.202Z,-7.26
2022-12-13T20:11:57.658Z,-7.29
2022-12-13T20:17:07.259Z,-7.19
2022-12-13T20:22:13.749Z,-7.07
2022-12-13T20:27:22.342Z,-7.06
2022-12-13T20:32:32.855Z,-7.09
2022-12-13T20:37:38.508Z,-7.04
2022-12-13T20:42:44.724Z,-6.91
2022-12-13T20:47:55.978Z,-6.87
2022-12-13T20:53:01.793Z,-6.86
2022-12-13T20:58:07.723Z,-6.85
2022-12-13T21:03:15.822Z,-6.81
2022-12-13T21:08:34.253Z,-6.77
2022-12-13T21:13:39.824Z,-6.76
2022-12-13T21:18:51.395Z,-6.84
2022-12-13T21:23:58.411Z,-6.83
2022-12-13T21:29:05.296Z,-6.76
2022-12-13T21:34:16.202Z,-6.74
2022-12-13T21:39:24.307Z,-6.70
2022-12-13T21:44:29.409Z,-6.69
2022-12-13T21:49:36.962Z,-6.65
2022-12-13T21:54:41.833Z,-6.63
2022-12-13T21:59:46.839Z,-6.66
2022-12-13T22:05:04.504Z,-6.57
2022-12-13T22:10:11.003Z,-6.47
2022-12-13T22:15:17.797Z,-6.50
2022-12-13T22:20:25.381Z,-6.51
2022-12-13T22:25:30.741Z,-6.47
2022-12-13T22:30:36.747Z,-6.42
2022-12-13T22:35:44.240Z,-6.39
2022-12-13T22:40:54.285Z,-6.37
2022-12-13T22:46:04.619Z,-6.36
2022-12-13T22:51:15.463Z,-6.39
2022-12-13T22:56:21.824Z,-6.35
2022-12-13T23:01:30.468Z,-6.32
2022-12-13T23:06:39.568Z,-6.15
2022-12-13T23:11:57.671Z,-6.14
2022-12-13T23:17:03.355Z,-6.10
2022-12-13T23:22:11.262Z,-6.08
2022-12-13T23:27:17.586Z,-6.00
2022-12-13T23:32:22.643Z,-5.91
2022-12-13T23:37:30.243Z,-5.95
2022-12-13T23:42:35.145Z,-5.86
2022-12-13T23:47:40.186Z,-5.88
2022-12-13T23:52:51.081Z,-5.77
2022-12-13T23:57:55.996Z,-5.74
